createdAt,value
2022-09-27T00:00:11.994Z,93847.59
2022-09-27T00:01:12.310Z,93801.19
2022-09-27T00:02:11.831Z,93780.03
2022-09-27T00:03:10.663Z,93842.41
2022-09-27T00:04:07.403Z,93818.09
2022-09-27T00:05:04.311Z,93821.34
2022-09-27T00:06:08.091Z,93841.47
2022-09-27T00:07:05.422Z,93834.28
2022-09-27T00:08:02.340Z,93838.00
2022-09-27T00:09:00.252Z,93805.13
2022-09-27T00:09:56.965Z,93842.53
2022-09-27T00:11:10.298Z,93738.28
2022-09-27T00:12:07.004Z,93857.09
2022-09-27T00:13:03.846Z,93806.56
2022-09-27T00:14:02.198Z,93845.78
2022-09-27T00:14:59.811Z,93847.44
2022-09-27T00:16:04.796Z,93838.44
2022-09-27T00:17:01.562Z,93697.13
2022-09-27T00:17:58.249Z,93801.97
2022-09-27T00:19:00.205Z,93860.94
2022-09-27T00:19:59.812Z,93853.56
2022-09-27T00:20:56.666Z,93868.91
2022-09-27T00:21:53.383Z,93864.09
2022-09-27T00:22:50.254Z,93854.31
2022-09-27T00:23:46.982Z,93858.03
2022-09-27T00:24:43.683Z,93865.19
2022-09-27T00:25:40.359Z,93872.38
2022-09-27T00:26:37.172Z,93859.69
2022-09-27T00:27:33.968Z,93856.97
2022-09-27T00:28:31.135Z,93858.06
2022-09-27T00:29:29.129Z,93846.94
2022-09-27T00:30:25.798Z,93868.34
2022-09-27T00:31:41.529Z,93860.13
2022-09-27T00:32:56.902Z,93845.03
2022-09-27T00:34:19.968Z,93795.03
2022-09-27T00:35:16.821Z,93815.19
2022-09-27T00:36:14.257Z,93802.22
2022-09-27T00:37:11.717Z,93841.06
2022-09-27T00:38:08.397Z,93806.72
2022-09-27T00:39:05.157Z,93824.16
2022-09-27T00:40:02.066Z,93819.34
2022-09-27T00:40:58.782Z,93807.16
2022-09-27T00:41:55.999Z,93820.66
2022-09-27T00:42:52.683Z,93834.50
2022-09-27T00:43:52.779Z,93822.56
2022-09-27T00:45:05.874Z,93734.72
2022-09-27T00:46:04.625Z,93805.66
2022-09-27T00:47:10.705Z,93803.75
2022-09-27T00:48:07.481Z,93802.84
2022-09-27T00:49:09.931Z,93786.47
2022-09-27T00:50:28.211Z,93771.16
2022-09-27T00:51:25.347Z,93821.22
2022-09-27T00:52:29.339Z,93788.50
2022-09-27T00:53:42.973Z,93800.78
2022-09-27T00:54:45.285Z,93804.06
2022-09-27T00:55:56.095Z,93787.09
2022-09-27T00:56:55.458Z,93787.09
2022-09-27T00:57:52.711Z,93798.19
2022-09-27T00:58:59.696Z,93763.19
2022-09-27T01:00:10.005Z,93717.19
2022-09-27T01:01:14.225Z,93810.28
2022-09-27T01:02:12.582Z,93795.44
2022-09-27T01:03:22.576Z,93797.34
2022-09-27T01:04:24.200Z,93801.28
2022-09-27T01:05:25.636Z,93803.31
2022-09-27T01:06:23.037Z,93788.47
2022-09-27T01:07:19.789Z,93803.59
2022-09-27T01:08:16.550Z,93818.97
2022-09-27T01:09:13.716Z,93811.03
2022-09-27T01:10:12.195Z,93646.53
2022-09-27T01:11:17.372Z,93789.81
2022-09-27T01:12:37.075Z,93773.16
2022-09-27T01:14:12.143Z,93800.09
2022-09-27T01:15:27.373Z,93785.22
2022-09-27T01:16:50.672Z,93775.09
2022-09-27T01:18:09.102Z,93803.06
2022-09-27T01:19:34.452Z,93801.50
2022-09-27T01:20:37.101Z,93800.16
2022-09-27T01:21:46.005Z,93798.78
2022-09-27T01:22:58.185Z,93797.75
2022-09-27T01:24:07.131Z,93799.91
2022-09-27T01:25:39.288Z,93807.16
2022-09-27T01:26:47.580Z,93780.25
2022-09-27T01:27:51.350Z,93816.69
2022-09-27T01:29:08.242Z,93774.09
2022-09-27T01:30:29.717Z,93799.75
2022-09-27T01:31:46.633Z,93792.88
2022-09-27T01:33:04.893Z,93828.44
2022-09-27T01:34:37.240Z,93792.13
2022-09-27T01:36:11.433Z,93793.94
2022-09-27T01:37:14.079Z,93795.31
2022-09-27T01:38:31.977Z,93812.53
2022-09-27T01:39:44.934Z,93798.94
2022-09-27T01:40:53.597Z,93795.53
2022-09-27T01:42:01.975Z,93780.13
2022-09-27T01:43:08.604Z,93784.97
2022-09-27T01:44:29.758Z,93787.41
2022-09-27T01:45:34.260Z,93753.28
2022-09-27T01:46:40.136Z,93816.50
2022-09-27T01:47:53.994Z,93776.03
2022-09-27T01:48:52.328Z,93677.41
2022-09-27T01:50:00.473Z,93785.50
2022-09-27T01:51:07.309Z,93806.22
2022-09-27T01:52:10.477Z,93815.22
2022-09-27T01:53:15.862Z,93799.56
2022-09-27T01:54:22.159Z,93805.16
2022-09-27T01:55:25.642Z,93813.06
2022-09-27T01:56:38.291Z,93762.78
2022-09-27T01:57:43.836Z,93808.53
2022-09-27T01:58:49.100Z,93815.75
2022-09-27T01:59:54.642Z,93813.59
2022-09-27T02:00:55.344Z,93738.44
2022-09-27T02:01:54.768Z,93777.53
2022-09-27T02:03:06.042Z,93712.75
2022-09-27T02:04:05.442Z,93783.09
2022-09-27T02:05:07.627Z,93785.72
2022-09-27T02:06:12.795Z,93800.03
2022-09-27T02:07:42.373Z,93782.84
2022-09-27T02:08:50.496Z,93783.09
2022-09-27T02:09:58.097Z,93784.69
2022-09-27T02:11:01.718Z,93665.19
2022-09-27T02:12:06.582Z,93729.97
2022-09-27T02:13:17.755Z,93773.84
2022-09-27T02:14:42.126Z,93729.88
2022-09-27T02:15:53.568Z,93602.69
2022-09-27T02:16:59.396Z,93763.94
2022-09-27T02:18:18.934Z,93610.84
2022-09-27T02:19:49.367Z,93736.03
2022-09-27T02:20:52.273Z,93735.28
2022-09-27T02:22:09.852Z,93753.00
2022-09-27T02:23:15.423Z,93726.06
2022-09-27T02:24:21.143Z,93729.50
2022-09-27T02:25:17.748Z,93722.84
2022-09-27T02:26:35.964Z,93722.59
2022-09-27T02:27:48.204Z,93732.41
2022-09-27T02:29:00.002Z,93723.41
2022-09-27T02:30:08.241Z,93727.22
2022-09-27T02:31:05.173Z,93718.22
2022-09-27T02:32:02.078Z,93688.31
2022-09-27T02:32:59.254Z,93632.34
2022-09-27T02:34:27.462Z,93708.50
2022-09-27T02:35:32.407Z,93684.41
2022-09-27T02:36:30.836Z,93708.91
2022-09-27T02:37:27.599Z,93741.25
2022-09-27T02:38:24.778Z,93703.94
2022-09-27T02:39:22.125Z,93712.41
2022-09-27T02:40:20.196Z,93728.81
2022-09-27T02:41:19.706Z,93756.56
2022-09-27T02:42:16.583Z,93740.41
2022-09-27T02:43:17.597Z,93724.28
2022-09-27T02:44:17.820Z,93722.41
2022-09-27T02:45:18.501Z,93607.19
2022-09-27T02:46:21.499Z,93749.03
2022-09-27T02:47:46.045Z,93747.81
2022-09-27T02:49:20.438Z,93737.75
2022-09-27T02:50:55.857Z,93732.41
2022-09-27T02:52:20.334Z,93738.84
2022-09-27T02:53:19.654Z,93743.81
2022-09-27T02:54:27.423Z,93712.41
2022-09-27T02:55:24.071Z,93737.16
2022-09-27T02:56:33.424Z,93705.44
2022-09-27T02:57:57.546Z,93734.53
2022-09-27T02:59:06.366Z,93731.91
2022-09-27T03:00:15.921Z,93733.78
2022-09-27T03:01:23.366Z,93724.53
2022-09-27T03:02:26.259Z,93717.34
2022-09-27T03:03:47.973Z,93669.06
2022-09-27T03:05:02.554Z,93725.09
2022-09-27T03:06:06.505Z,93741.00
2022-09-27T03:07:04.226Z,93735.94
2022-09-27T03:08:01.322Z,93685.41
2022-09-27T03:08:58.038Z,93726.91
2022-09-27T03:09:55.129Z,93663.94
2022-09-27T03:10:51.896Z,93648.84
2022-09-27T03:11:49.154Z,93654.97
2022-09-27T03:12:46.448Z,93715.50
2022-09-27T03:14:06.784Z,93645.91
2022-09-27T03:15:01.582Z,93674.38
2022-09-27T03:16:01.443Z,93695.09
2022-09-27T03:16:58.545Z,93683.38
2022-09-27T03:17:55.270Z,93695.81
2022-09-27T03:18:51.930Z,93622.28
2022-09-27T03:19:49.514Z,93627.13
2022-09-27T03:20:46.470Z,93689.28
2022-09-27T03:21:43.278Z,93696.66
2022-09-27T03:22:40.802Z,93572.19
2022-09-27T03:23:38.339Z,93687.72
2022-09-27T03:24:35.101Z,93670.84
2022-09-27T03:25:31.864Z,93697.59
2022-09-27T03:26:28.694Z,93693.38
2022-09-27T03:27:25.388Z,93624.06
2022-09-27T03:28:22.167Z,93697.75
2022-09-27T03:29:18.902Z,93687.44
2022-09-27T03:30:16.101Z,93693.19
2022-09-27T03:31:12.836Z,93642.72
2022-09-27T03:32:10.313Z,93685.00
2022-09-27T03:33:07.056Z,93696.97
2022-09-27T03:34:03.780Z,93692.16
2022-09-27T03:35:00.489Z,93646.72
2022-09-27T03:35:57.188Z,93676.78
2022-09-27T03:36:53.884Z,93522.00
2022-09-27T03:37:50.583Z,93660.13
2022-09-27T03:38:47.313Z,93653.50
2022-09-27T03:39:44.010Z,93708.75
2022-09-27T03:40:40.776Z,93688.88
2022-09-27T03:41:38.263Z,93680.03
2022-09-27T03:42:35.161Z,93679.41
2022-09-27T03:43:31.836Z,93696.84
2022-09-27T03:44:28.517Z,93687.53
2022-09-27T03:45:25.341Z,93674.59
2022-09-27T03:46:22.129Z,93676.19
2022-09-27T03:47:19.639Z,93670.41
2022-09-27T03:48:17.240Z,93649.38
2022-09-27T03:49:14.038Z,93690.03
2022-09-27T03:50:12.265Z,93677.88
2022-09-27T03:51:12.699Z,93693.78
2022-09-27T03:52:09.354Z,93703.81
2022-09-27T03:53:06.284Z,93719.19
2022-09-27T03:54:03.049Z,93702.72
2022-09-27T03:55:02.114Z,93690.00
2022-09-27T03:55:59.332Z,93687.06
2022-09-27T03:56:56.015Z,93643.50
2022-09-27T03:57:52.705Z,93689.44
2022-09-27T03:58:49.552Z,93682.00
2022-09-27T03:59:46.266Z,93673.31
2022-09-27T04:00:44.118Z,93570.06
2022-09-27T04:01:41.232Z,93703.28
2022-09-27T04:02:38.166Z,93583.53
2022-09-27T04:03:36.218Z,93654.06
2022-09-27T04:04:32.944Z,93683.56
2022-09-27T04:05:29.861Z,93695.50
2022-09-27T04:06:27.102Z,93550.31
2022-09-27T04:07:23.842Z,93624.22
2022-09-27T04:08:22.282Z,93620.78
2022-09-27T04:09:18.978Z,93693.72
2022-09-27T04:10:16.576Z,93525.41
2022-09-27T04:11:15.251Z,93625.25
2022-09-27T04:12:12.361Z,93673.06
2022-09-27T04:13:09.102Z,93675.22
2022-09-27T04:14:05.950Z,93669.88
2022-09-27T04:15:02.722Z,93688.72
2022-09-27T04:15:59.468Z,93681.00
2022-09-27T04:16:56.244Z,93671.94
2022-09-27T04:17:53.077Z,93687.53
2022-09-27T04:18:49.773Z,93668.75
2022-09-27T04:19:46.450Z,93627.06
2022-09-27T04:20:43.347Z,93651.44
2022-09-27T04:21:40.146Z,93671.78
2022-09-27T04:22:41.674Z,93664.44
2022-09-27T04:23:38.407Z,93689.53
2022-09-27T04:24:35.192Z,93671.53
2022-09-27T04:25:35.154Z,93687.38
2022-09-27T04:26:31.941Z,93663.00
2022-09-27T04:27:28.617Z,93684.63
2022-09-27T04:28:25.808Z,93680.41
2022-09-27T04:29:22.705Z,93692.13
2022-09-27T04:30:19.394Z,93669.13
2022-09-27T04:31:16.182Z,93675.22
2022-09-27T04:32:13.382Z,93699.59
2022-09-27T04:33:10.062Z,93681.00
2022-09-27T04:34:06.839Z,93680.63
2022-09-27T04:35:22.097Z,93698.44
2022-09-27T04:36:27.507Z,93696.31
2022-09-27T04:37:24.742Z,93677.41
2022-09-27T04:38:23.629Z,93695.22
2022-09-27T04:39:20.340Z,93703.34
2022-09-27T04:40:17.488Z,93668.16
2022-09-27T04:41:14.880Z,93674.00
2022-09-27T04:42:11.584Z,93693.63
2022-09-27T04:43:08.266Z,93700.81
2022-09-27T04:44:06.561Z,93663.75
2022-09-27T04:45:03.451Z,93667.44
2022-09-27T04:46:00.303Z,93615.63
2022-09-27T04:46:57.139Z,93603.72
2022-09-27T04:47:54.155Z,93520.84
2022-09-27T04:48:51.181Z,93689.06
2022-09-27T04:49:48.294Z,93536.47
2022-09-27T04:50:45.000Z,93698.38
2022-09-27T04:51:41.705Z,93693.69
2022-09-27T04:52:38.719Z,93688.38
2022-09-27T04:53:35.435Z,93704.00
2022-09-27T04:54:32.595Z,93586.22
2022-09-27T04:55:29.272Z,93688.56
2022-09-27T04:56:26.238Z,93695.16
2022-09-27T04:57:22.984Z,93668.06
2022-09-27T04:58:19.684Z,93664.03
2022-09-27T04:59:16.496Z,93639.84
2022-09-27T05:00:13.936Z,93650.13
2022-09-27T05:01:10.785Z,93680.25
2022-09-27T05:02:07.783Z,93688.41
2022-09-27T05:03:04.563Z,93660.91
2022-09-27T05:04:01.384Z,93651.25
2022-09-27T05:04:59.361Z,93676.28
2022-09-27T05:05:56.161Z,93660.63
2022-09-27T05:06:57.202Z,93560.22
2022-09-27T05:07:54.201Z,93630.03
2022-09-27T05:08:50.908Z,93666.94
2022-09-27T05:09:47.601Z,93674.06
2022-09-27T05:10:44.376Z,93633.03
2022-09-27T05:11:41.069Z,93557.75
2022-09-27T05:12:37.785Z,93627.91
2022-09-27T05:13:34.636Z,93663.56
2022-09-27T05:14:31.309Z,93615.53
2022-09-27T05:15:28.852Z,93655.59
2022-09-27T05:16:25.563Z,93474.31
2022-09-27T05:17:23.549Z,93663.63
2022-09-27T05:18:20.251Z,93638.03
2022-09-27T05:19:17.103Z,93616.63
2022-09-27T05:20:14.189Z,93653.97
2022-09-27T05:21:10.975Z,93665.66
2022-09-27T05:22:07.669Z,93555.22
2022-09-27T05:23:04.793Z,93610.06
2022-09-27T05:24:01.703Z,93629.66
2022-09-27T05:24:58.436Z,93645.94
2022-09-27T05:25:56.571Z,93637.44
2022-09-27T05:26:54.113Z,93644.59
2022-09-27T05:27:51.764Z,93518.09
2022-09-27T05:28:48.440Z,93629.91
2022-09-27T05:29:45.777Z,93581.50
2022-09-27T05:30:42.524Z,93640.69
2022-09-27T05:31:39.237Z,93633.59
2022-09-27T05:32:36.213Z,93625.84
2022-09-27T05:33:34.382Z,93581.66
2022-09-27T05:34:32.609Z,93644.22
2022-09-27T05:35:29.302Z,93618.22
2022-09-27T05:36:26.016Z,93619.47
2022-09-27T05:37:22.750Z,93632.28
2022-09-27T05:38:19.643Z,93587.19
2022-09-27T05:39:17.332Z,93646.41
2022-09-27T05:40:36.533Z,93639.03
2022-09-27T05:41:32.868Z,93644.28
2022-09-27T05:42:29.629Z,93651.25
2022-09-27T05:43:27.160Z,93620.22
2022-09-27T05:44:25.975Z,93601.06
2022-09-27T05:45:24.451Z,93653.28
2022-09-27T05:46:21.328Z,93640.31
2022-09-27T05:47:18.151Z,93652.63
2022-09-27T05:48:14.850Z,93637.03
2022-09-27T05:49:11.519Z,93645.25
2022-09-27T05:50:09.361Z,93639.97
2022-09-27T05:51:06.238Z,93644.66
2022-09-27T05:52:02.996Z,93656.91
2022-09-27T05:52:59.738Z,93627.56
2022-09-27T05:53:56.516Z,93645.16
2022-09-27T05:54:53.217Z,93643.13
2022-09-27T05:55:49.931Z,93670.31
2022-09-27T05:56:46.623Z,93632.88
2022-09-27T05:57:43.365Z,93681.53
2022-09-27T05:58:40.020Z,93645.53
2022-09-27T05:59:36.690Z,93638.19
2022-09-27T06:00:34.912Z,93608.31
2022-09-27T06:01:31.648Z,93636.22
2022-09-27T06:02:28.628Z,93523.75
2022-09-27T06:03:25.474Z,93597.56
2022-09-27T06:04:22.191Z,93656.25
2022-09-27T06:05:19.798Z,93656.91
2022-09-27T06:06:16.832Z,93676.28
2022-09-27T06:07:13.535Z,93645.63
2022-09-27T06:08:13.066Z,93674.88
2022-09-27T06:09:15.493Z,93668.78
2022-09-27T06:10:12.251Z,93661.44
2022-09-27T06:11:14.202Z,93630.13
2022-09-27T06:12:11.892Z,93676.78
2022-09-27T06:13:15.332Z,93681.75
2022-09-27T06:14:13.752Z,93613.56
2022-09-27T06:15:10.802Z,93691.84
2022-09-27T06:16:11.066Z,93641.28
2022-09-27T06:17:07.817Z,93648.53
2022-09-27T06:18:16.131Z,93630.22
2022-09-27T06:19:13.044Z,93656.78
2022-09-27T06:20:10.403Z,93674.00
2022-09-27T06:21:07.280Z,93623.00
2022-09-27T06:22:04.494Z,93632.88
2022-09-27T06:23:07.423Z,93661.22
2022-09-27T06:24:04.423Z,93652.75
2022-09-27T06:25:01.132Z,93666.72
2022-09-27T06:26:03.189Z,93628.06
2022-09-27T06:26:59.969Z,93660.84
2022-09-27T06:27:56.692Z,93656.78
2022-09-27T06:28:54.783Z,93629.03
2022-09-27T06:29:51.473Z,93669.31
2022-09-27T06:30:50.804Z,93669.91
2022-09-27T06:31:47.589Z,93656.03
2022-09-27T06:32:44.750Z,93584.53
2022-09-27T06:33:41.439Z,93669.47
2022-09-27T06:34:38.261Z,93523.56
2022-09-27T06:35:36.418Z,93667.25
2022-09-27T06:36:33.398Z,93612.28
2022-09-27T06:37:30.063Z,93638.19
2022-09-27T06:38:26.737Z,93659.28
2022-09-27T06:39:23.408Z,93640.69
2022-09-27T06:40:20.770Z,93643.94
2022-09-27T06:41:17.456Z,93581.44
2022-09-27T06:42:14.138Z,93657.47
2022-09-27T06:43:13.292Z,93613.63
2022-09-27T06:44:10.004Z,93678.03
2022-09-27T06:45:07.179Z,93673.81
2022-09-27T06:46:05.293Z,93657.22
2022-09-27T06:47:02.006Z,93668.13
2022-09-27T06:48:02.422Z,93523.66
2022-09-27T06:48:59.107Z,93652.09
2022-09-27T06:50:14.517Z,93639.63
2022-09-27T06:51:11.208Z,93656.16
2022-09-27T06:52:07.971Z,93512.25
2022-09-27T06:53:06.487Z,93619.00
2022-09-27T06:54:03.253Z,93583.97
2022-09-27T06:55:00.027Z,93448.41
2022-09-27T06:56:01.417Z,93652.53
2022-09-27T06:57:02.299Z,93617.59
2022-09-27T06:58:20.250Z,93616.88
2022-09-27T06:59:35.637Z,93632.03
2022-09-27T07:00:32.766Z,93670.91
2022-09-27T07:01:30.203Z,93660.22
2022-09-27T07:02:27.616Z,93677.06
2022-09-27T07:03:30.742Z,93661.63
2022-09-27T07:04:29.799Z,93662.78
2022-09-27T07:05:31.205Z,93679.13
2022-09-27T07:06:28.620Z,93575.78
2022-09-27T07:07:25.306Z,93674.81
2022-09-27T07:08:21.991Z,93621.00
2022-09-27T07:09:18.733Z,93660.75
2022-09-27T07:10:18.132Z,93662.47
2022-09-27T07:11:15.501Z,93670.00
2022-09-27T07:12:13.401Z,93668.34
2022-09-27T07:13:11.363Z,93554.19
2022-09-27T07:14:08.233Z,93679.19
2022-09-27T07:15:06.235Z,93683.97
2022-09-27T07:16:03.658Z,93694.84
2022-09-27T07:17:00.348Z,93705.25
2022-09-27T07:18:00.574Z,93677.72
2022-09-27T07:19:00.471Z,93712.66
2022-09-27T07:19:57.685Z,93688.00
2022-09-27T07:20:59.391Z,93601.41
2022-09-27T07:21:56.939Z,93682.38
2022-09-27T07:22:53.609Z,93703.38
2022-09-27T07:23:50.590Z,93704.56
2022-09-27T07:24:47.540Z,93690.19
2022-09-27T07:25:44.402Z,93715.13
2022-09-27T07:26:41.091Z,93695.94
2022-09-27T07:27:38.727Z,93677.00
2022-09-27T07:28:35.558Z,93733.88
2022-09-27T07:29:32.310Z,93697.22
2022-09-27T07:30:29.544Z,93662.75
2022-09-27T07:31:26.335Z,93663.91
2022-09-27T07:32:23.051Z,93707.06
2022-09-27T07:33:19.718Z,93703.66
2022-09-27T07:34:18.975Z,93687.31
2022-09-27T07:35:15.694Z,93694.66
2022-09-27T07:36:14.139Z,93679.41
2022-09-27T07:37:10.826Z,93635.09
2022-09-27T07:38:12.258Z,93678.38
2022-09-27T07:39:09.922Z,93682.06
2022-09-27T07:40:09.457Z,93671.19
2022-09-27T07:41:14.237Z,93686.94
2022-09-27T07:42:11.353Z,93689.75
2022-09-27T07:43:09.470Z,93689.75
2022-09-27T07:44:06.449Z,93693.44
2022-09-27T07:45:07.269Z,93568.28
2022-09-27T07:46:06.398Z,93679.78
2022-09-27T07:47:07.333Z,93643.47
2022-09-27T07:48:06.311Z,93682.13
2022-09-27T07:49:03.092Z,93663.00
2022-09-27T07:49:59.879Z,93674.47
2022-09-27T07:50:56.618Z,93670.06
2022-09-27T07:51:53.325Z,93646.66
2022-09-27T07:52:51.224Z,93627.72
2022-09-27T07:53:47.934Z,93666.88
2022-09-27T07:54:44.751Z,93678.19
2022-09-27T07:55:42.527Z,93630.00
2022-09-27T07:56:39.248Z,93624.25
2022-09-27T07:57:36.208Z,93684.66
2022-09-27T07:58:33.008Z,93686.84
2022-09-27T07:59:30.074Z,93644.75
2022-09-27T08:00:26.863Z,93665.91
2022-09-27T08:01:23.646Z,93655.75
2022-09-27T08:02:20.822Z,93651.97
2022-09-27T08:03:18.022Z,93601.09
2022-09-27T08:04:14.732Z,93576.06
2022-09-27T08:05:13.304Z,93661.38
2022-09-27T08:06:10.607Z,93634.34
2022-09-27T08:07:08.606Z,93715.78
2022-09-27T08:08:07.147Z,93646.13
2022-09-27T08:09:06.880Z,93730.22
2022-09-27T08:10:03.804Z,93728.72
2022-09-27T08:11:00.617Z,93722.94
2022-09-27T08:11:58.352Z,93655.81
2022-09-27T08:12:55.113Z,93706.19
2022-09-27T08:13:57.037Z,93701.00
2022-09-27T08:14:54.703Z,93631.94
2022-09-27T08:15:52.880Z,93683.34
2022-09-27T08:16:51.125Z,93662.28
2022-09-27T08:17:47.842Z,93661.31
2022-09-27T08:18:45.196Z,93571.91
2022-09-27T08:19:42.188Z,93663.59
2022-09-27T08:20:40.101Z,93680.63
2022-09-27T08:21:36.960Z,93688.19
2022-09-27T08:22:33.817Z,93682.81
2022-09-27T08:23:31.158Z,93613.47
2022-09-27T08:24:28.304Z,93641.34
2022-09-27T08:25:25.037Z,93684.66
2022-09-27T08:26:21.811Z,93672.09
2022-09-27T08:27:18.590Z,93648.00
2022-09-27T08:28:15.255Z,93575.94
2022-09-27T08:29:12.910Z,93628.09
2022-09-27T08:30:10.156Z,93662.16
2022-09-27T08:31:06.942Z,93652.22
2022-09-27T08:32:03.931Z,93477.09
2022-09-27T08:33:03.239Z,93646.00
2022-09-27T08:33:59.981Z,93660.34
2022-09-27T08:34:57.119Z,93636.81
2022-09-27T08:35:53.858Z,93574.66
2022-09-27T08:36:50.553Z,93632.78
2022-09-27T08:37:59.749Z,93605.81
2022-09-27T08:38:59.146Z,93631.13
2022-09-27T08:39:55.830Z,93628.69
2022-09-27T08:40:58.328Z,93614.38
2022-09-27T08:41:55.000Z,93614.22
2022-09-27T08:43:05.059Z,93503.66
2022-09-27T08:44:23.067Z,93619.16
2022-09-27T08:46:06.122Z,93624.41
2022-09-27T08:47:29.477Z,93654.91
2022-09-27T08:48:28.945Z,93628.72
2022-09-27T08:49:43.343Z,93628.59
2022-09-27T08:50:46.792Z,93650.28
2022-09-27T08:51:48.558Z,93655.47
2022-09-27T08:53:23.613Z,93643.09
2022-09-27T08:54:31.455Z,93554.09
2022-09-27T08:55:28.115Z,93646.50
2022-09-27T08:56:26.119Z,93654.91
2022-09-27T08:57:25.458Z,93650.94
2022-09-27T08:58:28.848Z,93636.13
2022-09-27T08:59:34.427Z,93639.19
2022-09-27T09:00:31.995Z,93626.59
2022-09-27T09:01:29.270Z,93572.78
2022-09-27T09:02:27.312Z,93656.78
2022-09-27T09:03:29.426Z,93640.38
2022-09-27T09:04:39.931Z,93633.69
2022-09-27T09:05:38.063Z,93489.72
2022-09-27T09:06:47.958Z,93644.28
2022-09-27T09:08:03.247Z,93634.13
2022-09-27T09:09:21.353Z,93645.53
2022-09-27T09:10:54.962Z,93641.50
2022-09-27T09:12:25.116Z,93641.22
2022-09-27T09:13:36.922Z,93647.63
2022-09-27T09:14:36.556Z,93644.19
2022-09-27T09:15:56.430Z,93643.03
2022-09-27T09:17:00.742Z,93640.84
2022-09-27T09:18:28.098Z,93620.09
2022-09-27T09:20:02.052Z,93643.22
2022-09-27T09:21:33.293Z,93636.56
2022-09-27T09:23:17.355Z,93628.31
2022-09-27T09:24:32.424Z,93631.13
2022-09-27T09:25:38.181Z,93630.91
2022-09-27T09:27:06.316Z,93619.84
2022-09-27T09:28:25.747Z,93618.47
2022-09-27T09:29:24.912Z,93615.31
2022-09-27T09:30:31.068Z,93620.25
2022-09-27T09:31:42.624Z,93587.38
2022-09-27T09:32:51.232Z,93617.09
2022-09-27T09:34:05.388Z,93563.50
2022-09-27T09:35:11.783Z,93568.22
2022-09-27T09:36:08.446Z,93615.03
2022-09-27T09:37:22.009Z,93631.31
2022-09-27T09:38:25.095Z,93622.22
2022-09-27T09:39:45.195Z,93624.81
2022-09-27T09:40:52.470Z,93520.53
2022-09-27T09:42:06.516Z,93616.81
2022-09-27T09:43:18.361Z,93617.66
2022-09-27T09:44:30.140Z,93630.38
2022-09-27T09:45:49.720Z,93633.28
2022-09-27T09:46:55.742Z,93644.03
2022-09-27T09:48:15.289Z,93621.59
2022-09-27T09:49:30.542Z,93611.63
2022-09-27T09:50:35.306Z,93633.84
2022-09-27T09:51:46.711Z,93636.78
2022-09-27T09:52:54.354Z,93638.00
2022-09-27T09:54:15.818Z,93523.34
2022-09-27T09:55:25.227Z,93632.56
2022-09-27T09:56:36.316Z,93623.88
2022-09-27T09:57:44.512Z,93613.56
2022-09-27T09:58:54.276Z,93592.47
2022-09-27T10:00:01.690Z,93615.41
2022-09-27T10:01:11.836Z,93631.88
2022-09-27T10:02:33.348Z,93627.22
2022-09-27T10:03:30.080Z,93510.28
2022-09-27T10:04:28.761Z,93611.97
2022-09-27T10:05:28.168Z,93648.09
2022-09-27T10:06:27.230Z,93631.25
2022-09-27T10:07:27.132Z,93634.56
2022-09-27T10:08:24.611Z,93635.59
2022-09-27T10:09:27.912Z,93551.44
2022-09-27T10:10:24.753Z,93646.06
2022-09-27T10:11:40.504Z,93607.78
2022-09-27T10:12:37.702Z,93612.13
2022-09-27T10:13:36.372Z,93580.19
2022-09-27T10:14:33.595Z,93618.84
2022-09-27T10:15:31.084Z,93633.75
2022-09-27T10:16:29.212Z,93628.50
2022-09-27T10:17:38.730Z,93618.63
2022-09-27T10:18:44.112Z,93608.69
2022-09-27T10:19:43.507Z,93563.59
2022-09-27T10:20:59.966Z,93617.19
2022-09-27T10:22:28.467Z,93472.41
2022-09-27T10:23:25.849Z,93541.31
2022-09-27T10:24:22.616Z,93541.31
2022-09-27T10:25:19.766Z,93445.38
2022-09-27T10:26:19.896Z,93582.06
2022-09-27T10:27:16.659Z,93367.97
2022-09-27T10:28:45.927Z,93589.66
2022-09-27T10:29:42.836Z,93485.09
2022-09-27T10:30:39.595Z,93518.81
2022-09-27T10:31:38.402Z,93572.09
2022-09-27T10:32:37.550Z,93555.91
2022-09-27T10:33:38.335Z,93578.59
2022-09-27T10:34:40.166Z,93511.63
2022-09-27T10:35:42.413Z,93533.13
2022-09-27T10:36:39.299Z,93588.41
2022-09-27T10:37:36.086Z,93552.97
2022-09-27T10:38:37.523Z,93584.72
2022-09-27T10:39:36.989Z,93540.59
2022-09-27T10:40:35.294Z,93582.75
2022-09-27T10:41:35.494Z,93591.03
2022-09-27T10:42:38.641Z,93569.50
2022-09-27T10:43:37.057Z,93593.66
2022-09-27T10:44:33.796Z,93571.03
2022-09-27T10:45:33.499Z,93473.06
2022-09-27T10:46:34.779Z,93451.47
2022-09-27T10:47:31.521Z,93553.63
2022-09-27T10:48:28.326Z,93530.97
2022-09-27T10:49:30.229Z,93575.72
2022-09-27T10:50:50.836Z,93562.28
2022-09-27T10:51:54.632Z,93577.72
2022-09-27T10:53:21.366Z,93522.06
2022-09-27T10:54:30.692Z,93506.59
2022-09-27T10:55:27.778Z,93541.28
2022-09-27T10:56:30.012Z,93504.56
2022-09-27T10:57:30.184Z,93558.50
2022-09-27T10:58:36.852Z,93409.78
2022-09-27T10:59:39.682Z,93499.53
2022-09-27T11:00:37.581Z,93567.09
2022-09-27T11:01:51.808Z,93529.31
2022-09-27T11:02:58.408Z,93559.38
2022-09-27T11:03:59.266Z,93512.25
2022-09-27T11:05:03.648Z,93530.53
2022-09-27T11:06:00.579Z,93418.97
2022-09-27T11:07:09.337Z,93546.50
2022-09-27T11:08:28.692Z,93549.13
2022-09-27T11:09:26.879Z,93511.03
2022-09-27T11:10:29.901Z,93530.59
2022-09-27T11:11:28.603Z,93528.63
2022-09-27T11:12:25.485Z,93535.50
2022-09-27T11:13:22.202Z,93563.78
2022-09-27T11:14:24.356Z,93394.94
2022-09-27T11:15:24.475Z,93531.78
2022-09-27T11:16:35.475Z,93526.66
2022-09-27T11:18:01.403Z,93498.31
2022-09-27T11:18:58.084Z,93503.66
2022-09-27T11:20:36.719Z,93522.63
2022-09-27T11:21:47.459Z,93491.38
2022-09-27T11:23:21.377Z,93504.66
2022-09-27T11:25:01.614Z,93496.47
2022-09-27T11:26:17.800Z,93501.66
2022-09-27T11:27:49.709Z,93512.06
2022-09-27T11:28:46.327Z,93493.78
2022-09-27T11:30:03.892Z,93510.03
2022-09-27T11:31:28.633Z,93505.31
2022-09-27T11:32:59.506Z,93499.81
2022-09-27T11:34:24.898Z,93510.53
2022-09-27T11:35:47.229Z,93509.56
2022-09-27T11:37:15.570Z,93492.88
2022-09-27T11:38:51.037Z,93493.81
2022-09-27T11:39:58.648Z,93467.06
2022-09-27T11:41:20.477Z,93480.00
2022-09-27T11:42:44.723Z,93483.59
2022-09-27T11:43:56.610Z,93470.22
2022-09-27T11:46:41.665Z,93470.22
2022-09-27T11:47:47.954Z,93486.78
2022-09-27T11:49:07.871Z,93465.31
2022-09-27T11:50:26.496Z,93469.28
2022-09-27T11:51:26.817Z,93467.72
2022-09-27T11:52:39.813Z,93440.75
2022-09-27T11:53:36.636Z,93470.97
2022-09-27T11:54:39.329Z,93476.13
2022-09-27T11:55:52.934Z,93336.72
2022-09-27T11:57:04.861Z,93469.91
2022-09-27T11:58:13.598Z,93474.81
2022-09-27T11:59:29.433Z,93468.97
2022-09-27T12:00:49.130Z,93433.50
2022-09-27T12:02:04.165Z,93456.19
2022-09-27T12:03:42.478Z,93468.34
2022-09-27T12:05:03.954Z,93455.91
2022-09-27T12:06:16.713Z,93414.81
2022-09-27T12:07:48.545Z,93423.88
2022-09-27T12:09:03.226Z,93445.78
2022-09-27T12:10:09.649Z,93417.22
2022-09-27T12:11:30.838Z,93445.13
2022-09-27T12:12:36.127Z,93439.56
2022-09-27T12:13:56.871Z,93449.09
2022-09-27T12:15:07.122Z,93433.91
2022-09-27T12:16:06.311Z,93447.72
2022-09-27T12:17:11.474Z,93465.22
2022-09-27T12:18:29.370Z,93444.00
2022-09-27T12:19:32.676Z,93393.03
2022-09-27T12:20:35.320Z,93386.44
2022-09-27T12:21:33.831Z,93324.31